Terminal Aerodrome Forecast
Issued by NWS

Home | Current Version | Previous Version | Graphics & Text | Print | Product List | Glossary On
Versions: 1 2 3 4 5 6 7 8 9 10 11 12 13 14 15 16 17 18 19 20 21 22 23 24 25 26 27
000
FTUS43 KICT 270403 AAB
TAFHUT
TAF AMD
KHUT 270403Z 2704/2724 29015G25KT 4SM TSRA OVC020CB
      TEMPO 2704/2705 VRB20G45KT 3/4SM +TSRA OVC015CB
     FM270600 15008KT P6SM BKN015
     FM271000 15009KT 6SM BR OVC009
     FM271600 17014G21KT P6SM SCT025
     FM271900 17017G23KT P6SM VCTS BKN035CB=

USA.gov is the U.S. government's official web portal to all federal, state and local government web resources and services.